Time;durP1;ratioP1;P1;durP2;ratioP2;P2;SDS_P1;SDS_P2;PMS_P1;PMS_P2;Temp;Humidity;BMP_temperature;BMP_pressure;BME280_temperature;BME280_humidity;BME280_pressure;Samples;Min_cycle;Max_cycle;Signal;HPM_P1;HPM_P2
2023/07/15 00:03:02;;;;;;;7.75;2.55;;;;;;;18.50;60.15;99608.06;10580989;28;20048;-76
2023/07/15 00:08:06;;;;;;;2.75;2.42;;;;;;;18.09;61.92;99603.84;10580370;28;20044;-76
2023/07/15 00:13:15;;;;;;;2.72;1.88;;;;;;;18.19;62.08;99596.06;10588971;28;20490;-76
2023/07/15 00:18:17;;;;;;;2.42;1.73;;;;;;;18.15;61.66;99597.28;10587921;28;20040;-75
2023/07/15 00:23:26;;;;;;;3.67;2.00;;;;;;;18.06;61.73;99588.13;10587994;28;20043;-76
2023/07/15 00:28:28;;;;;;;2.70;2.45;;;;;;;18.04;62.49;99584.69;10569667;28;20067;-74
2023/07/15 00:33:29;;;;;;;3.30;2.08;;;;;;;18.02;62.83;99585.78;10586908;28;20489;-76
2023/07/15 00:38:32;;;;;;;2.30;2.10;;;;;;;18.01;62.50;99573.44;10587258;28;20065;-76
2023/07/15 00:43:56;;;;;;;2.90;2.38;;;;;;;17.88;63.55;99582.28;10568225;28;20463;-76
2023/07/15 00:49:00;;;;;;;2.85;2.00;;;;;;;17.63;63.69;99587.53;10569146;28;20040;-75
2023/07/15 00:54:03;;;;;;;2.78;1.95;;;;;;;17.44;65.08;99585.25;10586166;28;20097;-75
2023/07/15 00:59:07;;;;;;;4.05;2.08;;;;;;;17.53;65.17;99576.69;10567692;28;20040;-75
2023/07/15 01:04:08;;;;;;;2.30;2.10;;;;;;;17.64;64.21;99575.94;10567997;28;20138;-76
2023/07/15 01:09:10;;;;;;;2.13;1.77;;;;;;;17.52;64.99;99574.09;10567751;28;20051;-75
2023/07/15 01:14:12;;;;;;;3.45;2.10;;;;;;;17.36;65.62;99579.63;10567888;28;20051;-76
2023/07/15 01:19:18;;;;;;;2.83;1.90;;;;;;;17.10;67.50;99576.88;10585412;28;20052;-75
2023/07/15 01:24:22;;;;;;;10.63;2.37;;;;;;;17.07;67.86;99570.91;10586359;28;20042;-76
2023/07/15 01:29:26;;;;;;;2.58;1.80;;;;;;;17.31;65.79;99568.44;10585288;28;20040;-76
2023/07/15 01:34:30;;;;;;;3.10;2.35;;;;;;;17.54;65.40;99565.09;10566822;28;20040;-77
2023/07/15 01:39:34;;;;;;;2.45;2.20;;;;;;;17.29;65.85;99557.91;10566838;28;20051;-76
2023/07/15 01:44:36;;;;;;;3.25;2.42;;;;;;;17.32;66.41;99559.53;10585419;28;20051;-76
2023/07/15 01:49:38;;;;;;;3.08;1.90;;;;;;;17.04;67.39;99545.41;10585629;28;20423;-77
2023/07/15 01:54:39;;;;;;;2.60;2.20;;;;;;;17.22;66.70;99547.78;10585546;28;20054;-76
2023/07/15 01:59:41;;;;;;;3.70;2.25;;;;;;;17.45;64.87;99554.25;10584921;28;20067;-76
2023/07/15 02:04:43;;;;;;;4.63;2.20;;;;;;;17.13;66.67;99547.47;10565814;28;20043;-76
2023/07/15 02:09:45;;;;;;;2.58;2.00;;;;;;;17.22;66.02;99547.78;10549631;28;20071;-76
2023/07/15 02:14:46;;;;;;;2.22;2.00;;;;;;;17.19;65.93;99550.69;10584120;28;20075;-77
2023/07/15 02:19:52;;;;;;;2.38;2.17;;;;;;;16.95;67.05;99553.13;10565554;28;20126;-75
2023/07/15 02:24:54;;;;;;;4.10;2.15;;;;;;;16.64;69.08;99539.16;10583675;28;20508;-78
2023/07/15 02:29:55;;;;;;;4.18;2.53;;;;;;;16.75;68.84;99533.22;10565040;28;20036;-77
2023/07/15 02:34:57;;;;;;;4.05;2.25;;;;;;;16.81;67.90;99532.81;10582429;28;20576;-76
2023/07/15 02:39:59;;;;;;;2.55;2.03;;;;;;;16.83;68.45;99536.22;10564601;28;20039;-77
2023/07/15 02:45:04;;;;;;;2.92;2.38;;;;;;;16.58;69.42;99534.28;10564838;28;20532;-76
2023/07/15 02:50:08;;;;;;;2.92;2.30;;;;;;;16.54;69.63;99541.56;10584029;28;20089;-77
2023/07/15 02:55:10;;;;;;;8.57;2.15;;;;;;;16.57;69.92;99557.31;10582406;28;20047;-76
2023/07/15 03:00:14;;;;;;;3.45;2.40;;;;;;;16.59;70.32;99544.78;10564114;28;20143;-77
2023/07/15 03:05:17;;;;;;;2.65;2.35;;;;;;;16.59;70.43;99546.56;10582955;28;20097;-76
2023/07/15 03:10:19;;;;;;;2.72;2.17;;;;;;;16.44;71.22;99543.13;10581463;28;20047;-77
2023/07/15 03:15:21;;;;;;;3.33;2.22;;;;;;;16.67;70.83;99546.94;10582277;28;20115;-76
2023/07/15 03:20:25;;;;;;;4.57;2.10;;;;;;;16.59;70.65;99536.81;10581454;28;20408;-77
2023/07/15 03:25:26;;;;;;;3.50;2.60;;;;;;;16.62;71.01;99546.38;10563739;28;20048;-76
2023/07/15 03:30:28;;;;;;;2.47;2.28;;;;;;;16.53;71.76;99549.63;10563195;28;20135;-77
2023/07/15 03:35:30;;;;;;;3.67;2.30;;;;;;;16.64;72.89;99544.47;10563254;28;20040;-76
2023/07/15 03:40:32;;;;;;;3.22;2.75;;;;;;;16.54;72.75;99546.88;10563214;28;20052;-76
2023/07/15 03:45:33;;;;;;;3.95;2.70;;;;;;;16.57;71.73;99541.38;10585938;28;20049;-76
2023/07/15 03:50:35;;;;;;;3.22;2.45;;;;;;;16.61;71.15;99542.88;10570799;28;20050;-76
2023/07/15 03:55:37;;;;;;;6.07;2.85;;;;;;;16.74;71.57;99536.81;10589228;28;20455;-75
2023/07/15 04:00:39;;;;;;;2.75;2.35;;;;;;;16.75;71.06;99546.47;10571077;28;20127;-77
2023/07/15 04:05:41;;;;;;;2.45;2.20;;;;;;;16.87;70.50;99543.88;10589112;28;20501;-76
2023/07/15 04:10:46;;;;;;;2.20;1.90;;;;;;;17.03;69.67;99537.56;10588375;28;20382;-75
2023/07/15 04:15:48;;;;;;;3.03;2.38;;;;;;;17.22;68.96;99542.47;10587735;28;20043;-76
2023/07/15 04:20:50;;;;;;;2.90;2.20;;;;;;;17.39;68.76;99539.53;10588699;28;20040;-75
2023/07/15 04:25:52;;;;;;;2.38;2.17;;;;;;;17.52;68.25;99542.22;10589245;28;20044;-76
2023/07/15 04:30:54;;;;;;;2.67;2.10;;;;;;;17.73;67.11;99535.44;10587883;28;20494;-76
2023/07/15 04:35:56;;;;;;;3.40;1.83;;;;;;;18.04;65.18;99542.16;10587840;28;20044;-75
2023/07/15 04:40:58;;;;;;;1.95;1.58;;;;;;;18.29;62.67;99540.44;10587505;28;20039;-75
2023/07/15 04:46:00;;;;;;;6.10;1.90;;;;;;;18.35;63.04;99535.50;10568806;28;20047;-77
2023/07/15 04:51:02;;;;;;;1.92;1.50;;;;;;;18.52;61.13;99533.44;10587611;28;20046;-76
2023/07/15 04:56:04;;;;;;;2.22;1.20;;;;;;;18.75;60.27;99542.44;10586619;28;20043;-77
2023/07/15 05:01:06;;;;;;;3.45;1.50;;;;;;;18.89;60.37;99548.44;10569769;28;20036;-77
2023/07/15 05:06:08;;;;;;;2.40;1.30;;;;;;;19.23;58.35;99545.94;10586564;28;20500;-76
2023/07/15 05:11:12;;;;;;;1.80;1.40;;;;;;;19.50;58.08;99552.81;10587167;28;20085;-76
2023/07/15 05:16:14;;;;;;;2.88;1.45;;;;;;;19.80;57.47;99547.81;10569319;28;20039;-76
2023/07/15 05:21:16;;;;;;;2.05;1.35;;;;;;;19.91;54.96;99550.47;10586027;28;20067;-75
2023/07/15 05:26:18;;;;;;;2.10;1.45;;;;;;;20.10;55.92;99549.06;10568161;28;20081;-76
2023/07/15 05:31:20;;;;;;;3.80;1.70;;;;;;;20.40;54.54;99543.91;10568568;28;20036;-77
2023/07/15 05:36:22;;;;;;;2.28;1.63;;;;;;;20.68;53.13;99541.75;10584830;28;20047;-76
2023/07/15 05:41:24;;;;;;;2.72;1.50;;;;;;;21.08;53.05;99546.47;10567506;28;20442;-77
2023/07/15 05:46:26;;;;;;;4.00;1.70;;;;;;;21.60;51.28;99542.97;10584414;28;20043;-76
2023/07/15 05:51:28;;;;;;;2.72;1.77;;;;;;;22.16;48.95;99539.06;10585357;28;20119;-77
2023/07/15 05:56:30;;;;;;;2.13;1.23;;;;;;;22.59;48.75;99546.81;10589270;28;20050;-79
2023/07/15 06:01:31;;;;;;;2.03;1.60;;;;;;;23.06;47.66;99538.16;10588874;28;20052;-80
2023/07/15 06:06:34;;;;;;;2.58;1.40;;;;;;;23.46;46.39;99539.84;10605541;28;20047;-79
2023/07/15 06:11:36;;;;;;;3.97;1.48;;;;;;;23.78;46.18;99542.25;10604999;28;20381;-80
2023/07/15 06:16:37;;;;;;;2.42;1.50;;;;;;;24.15;46.37;99540.41;10606550;28;20043;-79
2023/07/15 06:21:43;;;;;;;2.08;1.50;;;;;;;24.77;44.00;99532.63;10600611;28;20040;-80
2023/07/15 06:26:45;;;;;;;1.92;1.48;;;;;;;25.09;43.10;99542.03;10590687;28;20042;-80
2023/07/15 06:31:49;;;;;;;2.50;1.45;;;;;;;25.54;44.14;99539.22;10604104;28;20061;-79
2023/07/15 06:36:51;;;;;;;2.65;1.50;;;;;;;25.98;43.19;99519.50;10604862;28;20047;-79
2023/07/15 06:41:56;;;;;;;3.05;1.35;;;;;;;26.33;41.20;99530.13;10586305;28;20039;-80
2023/07/15 06:46:58;;;;;;;6.78;1.40;;;;;;;26.35;41.93;99532.69;10585814;28;20066;-80
2023/07/15 06:52:00;;;;;;;1.92;1.30;;;;;;;26.48;42.75;99527.72;10605361;28;20070;-79
2023/07/15 06:57:09;;;;;;;2.00;1.30;;;;;;;27.02;40.30;99530.88;10607085;28;20137;-80
2023/07/15 07:02:10;;;;;;;3.55;1.55;;;;;;;27.19;40.14;99533.63;10585177;28;20048;-81
2023/07/15 07:07:12;;;;;;;1.50;1.30;;;;;;;27.58;39.98;99525.66;10602542;28;20178;-79
2023/07/15 07:12:14;;;;;;;2.88;1.30;;;;;;;27.91;39.18;99524.63;10599019;28;20048;-78
2023/07/15 07:17:16;;;;;;;3.00;1.23;;;;;;;28.12;39.66;99518.66;10593566;28;20047;-79
2023/07/15 07:22:18;;;;;;;5.47;1.40;;;;;;;28.59;38.36;99516.97;10607894;28;20127;-79
2023/07/15 07:27:20;;;;;;;8.88;1.70;;;;;;;28.88;38.04;99498.19;10610995;28;20044;-79
2023/07/15 07:32:22;;;;;;;2.78;1.20;;;;;;;29.13;38.29;99498.03;10601458;28;20048;-79
2023/07/15 07:37:24;;;;;;;4.93;1.48;;;;;;;29.28;38.21;99498.09;10594825;28;20043;-77
2023/07/15 07:42:26;;;;;;;4.22;1.75;;;;;;;29.55;38.68;99488.53;10594178;28;20054;-77
2023/07/15 07:47:27;;;;;;;2.90;1.30;;;;;;;29.84;36.65;99483.19;10591956;28;20043;-77
2023/07/15 07:52:29;;;;;;;7.55;1.75;;;;;;;29.94;37.63;99474.78;10591717;28;20044;-78
2023/07/15 07:57:31;;;;;;;4.00;1.60;;;;;;;30.19;36.33;99466.38;10592001;28;20073;-75
2023/07/15 08:02:33;;;;;;;3.20;1.40;;;;;;;30.33;37.13;99458.22;10591669;28;20051;-77
2023/07/15 08:07:35;;;;;;;6.88;1.48;;;;;;;30.07;36.28;99464.13;10590375;28;20047;-76
2023/07/15 08:12:37;;;;;;;3.15;1.30;;;;;;;30.25;36.09;99469.19;10590114;28;20036;-76
2023/07/15 08:17:39;;;;;;;3.38;1.50;;;;;;;30.57;36.48;99458.91;10590315;28;20048;-77
2023/07/15 08:22:41;;;;;;;1.50;1.40;;;;;;;30.98;36.65;99455.59;10590402;28;20078;-76
2023/07/15 08:27:43;;;;;;;3.78;1.30;;;;;;;31.51;35.14;99456.91;10589333;28;20054;-76
2023/07/15 08:32:45;;;;;;;2.95;1.35;;;;;;;31.79;34.27;99445.19;10588845;28;20042;-77
2023/07/15 08:37:47;;;;;;;2.05;1.20;;;;;;;32.14;35.14;99449.56;10588775;28;20127;-77
2023/07/15 08:42:54;;;;;;;1.77;1.13;;;;;;;32.67;32.61;99450.81;10588250;28;20118;-77
2023/07/15 08:47:56;;;;;;;2.63;1.20;;;;;;;32.84;32.79;99449.38;10588289;28;20048;-77
2023/07/15 08:53:00;;;;;;;2.92;1.35;;;;;;;32.85;33.15;99443.75;10588573;28;20044;-76
2023/07/15 08:58:02;;;;;;;2.40;1.20;;;;;;;33.11;33.07;99453.81;10569408;28;20493;-76
2023/07/15 09:03:05;;;;;;;2.03;1.30;;;;;;;33.54;30.30;99430.78;10572547;28;20043;-78
2023/07/15 09:08:12;;;;;;;5.72;1.23;;;;;;;33.74;30.52;99447.13;10587858;28;20378;-77
2023/07/15 09:13:21;;;;;;;2.38;1.30;;;;;;;33.85;28.87;99430.91;10587954;28;20499;-77
2023/07/15 09:18:23;;;;;;;2.65;1.38;;;;;;;34.10;29.42;99435.72;10586520;28;20078;-77
2023/07/15 09:23:30;;;;;;;1.67;1.33;;;;;;;34.44;28.88;99426.28;10586869;28;20040;-77
2023/07/15 09:28:31;;;;;;;2.58;1.10;;;;;;;35.02;27.00;99428.94;10589727;28;20067;-77
2023/07/15 09:33:40;;;;;;;1.92;1.00;;;;;;;35.54;25.24;99434.16;10590793;28;20042;-78
2023/07/15 09:38:42;;;;;;;3.25;1.10;;;;;;;35.63;27.52;99428.16;10612726;27;20068;-77
2023/07/15 09:43:46;;;;;;;0.88;0.80;;;;;;;35.71;22.90;99423.47;10610747;27;20047;-78
2023/07/15 09:48:50;;;;;;;1.58;0.80;;;;;;;35.94;22.46;99429.06;10556921;28;20079;-77
2023/07/15 09:53:56;;;;;;;2.00;0.90;;;;;;;36.09;21.61;99429.56;10629216;27;20043;-74
2023/07/15 09:59:04;;;;;;;1.48;1.00;;;;;;;36.74;21.52;99422.59;10627283;27;20078;-76
2023/07/15 10:04:22;;;;;;;1.35;0.70;;;;;;;36.67;21.23;99410.91;10628653;27;20397;-75
2023/07/15 10:09:31;;;;;;;1.85;0.80;;;;;;;36.98;20.98;99420.78;10493048;28;20392;-76
2023/07/15 10:14:34;;;;;;;1.45;1.13;;;;;;;36.92;20.45;99427.19;10494035;28;20376;-76
2023/07/15 10:19:50;;;;;;;2.45;1.02;;;;;;;37.04;20.63;99428.88;10493330;28;20082;-76
2023/07/15 10:24:54;;;;;;;1.48;0.80;;;;;;;37.06;19.77;99426.75;10495117;28;20041;-75
2023/07/15 10:30:14;;;;;;;1.10;0.80;;;;;;;36.55;22.04;99417.19;10494227;28;20128;-77
2023/07/15 10:35:18;;;;;;;2.25;0.95;;;;;;;37.33;22.78;99407.13;10493826;28;20504;-77
2023/07/15 10:40:50;;;;;;;1.15;1.00;;;;;;;37.71;20.93;99422.25;10494578;28;20079;-78
2023/07/15 10:45:54;;;;;;;1.10;1.00;;;;;;;38.29;21.49;99432.25;10495028;28;20473;-77
2023/07/15 10:50:59;;;;;;;1.07;0.90;;;;;;;38.40;20.78;99430.59;10492973;28;20070;-77
2023/07/15 10:56:05;;;;;;;0.85;0.82;;;;;;;38.35;22.09;99437.66;10491633;28;20044;-76
2023/07/15 11:01:09;;;;;;;1.20;1.10;;;;;;;38.44;21.22;99438.09;10496205;28;20402;-76
2023/07/15 11:06:12;;;;;;;0.85;0.85;;;;;;;38.30;22.41;99423.81;10491366;28;20413;-75
2023/07/15 11:11:15;;;;;;;3.05;1.00;;;;;;;38.09;23.60;99417.06;10489906;28;20513;-75
2023/07/15 11:16:17;;;;;;;1.50;1.00;;;;;;;38.00;23.15;99421.28;10489104;28;20464;-76
2023/07/15 11:21:19;;;;;;;1.98;1.48;;;;;;;37.62;23.60;99422.59;10463242;28;20041;-75
2023/07/15 11:26:24;;;;;;;1.45;1.20;;;;;;;37.79;25.80;99394.44;10462703;28;20534;-76
2023/07/15 11:31:26;;;;;;;1.25;0.98;;;;;;;38.10;24.39;99396.78;10460910;28;20491;-75
2023/07/15 11:36:28;;;;;;;2.03;1.20;;;;;;;38.64;24.07;99385.44;10462153;28;20437;-76
2023/07/15 11:41:32;;;;;;;3.92;1.20;;;;;;;37.89;24.15;99389.19;10462341;28;20067;-75
2023/07/15 11:46:33;;;;;;;;;;;;;;;38.07;23.64;99389.03;10461632;28;20033;-75
2023/07/15 11:51:40;;;;;;;1.35;1.15;;;;;;;38.31;23.77;99392.56;10462909;28;19925;-75
2023/07/15 11:56:43;;;;;;;2.58;1.10;;;;;;;38.74;24.20;99385.66;10462575;28;20068;-75
2023/07/15 12:01:45;;;;;;;2.30;1.48;;;;;;;38.06;25.96;99383.78;10462819;28;20406;-75
2023/07/15 12:06:54;;;;;;;1.27;1.10;;;;;;;38.17;25.61;99382.94;10462103;28;20049;-75
2023/07/15 12:11:56;;;;;;;1.88;1.20;;;;;;;38.19;24.86;99375.25;10462521;28;20474;-74
2023/07/15 12:17:02;;;;;;;1.77;1.10;;;;;;;37.59;25.53;99381.97;10462259;28;20037;-74
2023/07/15 12:22:04;;;;;;;3.33;1.25;;;;;;;37.97;24.57;99369.63;10460131;28;20041;-74
2023/07/15 12:27:06;;;;;;;1.95;1.10;;;;;;;38.08;24.08;99370.66;10461081;28;20049;-74
2023/07/15 12:32:08;;;;;;;1.65;1.10;;;;;;;38.19;24.92;99366.19;10458003;28;20136;-74
2023/07/15 12:37:10;;;;;;;1.67;1.08;;;;;;;38.07;25.59;99353.34;10460510;28;20063;-75
2023/07/15 12:42:12;;;;;;;2.33;1.00;;;;;;;38.53;23.70;99339.69;10460338;28;20041;-75
2023/07/15 12:47:13;;;;;;;2.65;0.93;;;;;;;38.43;23.10;99342.22;10459685;28;20395;-73
2023/07/15 12:52:15;;;;;;;1.98;1.15;;;;;;;38.67;24.90;99345.69;10459494;28;20044;-75
2023/07/15 12:57:17;;;;;;;3.17;1.20;;;;;;;38.74;23.15;99349.94;10459454;28;20044;-76
2023/07/15 13:02:19;;;;;;;1.25;1.10;;;;;;;38.34;25.27;99345.41;10457569;28;20053;-76
2023/07/15 13:07:21;;;;;;;2.45;0.95;;;;;;;38.40;24.96;99346.31;10459329;28;20037;-76
2023/07/15 13:12:23;;;;;;;2.22;1.00;;;;;;;38.38;24.91;99339.41;10457508;28;20044;-76
2023/07/15 13:17:25;;;;;;;2.15;0.95;;;;;;;38.58;23.70;99324.13;10459874;28;20040;-77
2023/07/15 13:22:27;;;;;;;1.13;0.88;;;;;;;38.60;24.45;99334.84;10458272;28;20045;-76
2023/07/15 13:27:29;;;;;;;1.50;0.98;;;;;;;38.48;24.23;99317.63;10457351;28;20071;-76
2023/07/15 13:32:31;;;;;;;1.20;1.10;;;;;;;38.36;23.62;99317.69;10460934;28;20068;-76
2023/07/15 13:37:32;;;;;;;1.98;1.10;;;;;;;38.22;23.01;99313.56;10458926;28;20037;-76
2023/07/15 13:42:34;;;;;;;2.25;0.80;;;;;;;37.90;25.02;99303.09;10473143;28;20076;-76
2023/07/15 13:47:36;;;;;;;2.45;0.90;;;;;;;37.65;24.69;99292.41;10489809;28;20086;-75
2023/07/15 13:52:38;;;;;;;1.85;1.00;;;;;;;37.81;24.25;99280.69;10495786;28;20069;-74
2023/07/15 13:57:40;;;;;;;1.08;0.80;;;;;;;37.67;23.92;99284.78;10456914;28;20445;-75
2023/07/15 14:02:42;;;;;;;2.67;0.90;;;;;;;37.50;25.62;99283.88;10456874;28;20047;-75
2023/07/15 14:07:48;;;;;;;1.50;0.80;;;;;;;37.33;24.94;99279.13;10457351;28;20037;-76
2023/07/15 14:12:50;;;;;;;1.25;0.90;;;;;;;37.36;24.42;99283.28;10486535;28;20468;-77
2023/07/15 14:17:51;;;;;;;1.00;1.00;;;;;;;37.35;25.06;99278.88;10498977;28;20045;-76
2023/07/15 14:22:57;;;;;;;2.25;1.25;;;;;;;37.43;24.53;99275.78;10499146;28;20044;-76
2023/07/15 14:27:59;;;;;;;1.55;0.90;;;;;;;37.36;24.71;99275.03;10480918;28;20114;-76
2023/07/15 14:33:01;;;;;;;2.15;1.00;;;;;;;36.94;24.65;99260.72;10496967;28;20565;-76
2023/07/15 14:38:03;;;;;;;1.02;0.93;;;;;;;37.22;23.86;99246.25;10497906;28;20068;-77
2023/07/15 14:43:05;;;;;;;1.20;1.00;;;;;;;36.70;24.42;99244.22;10479023;28;20064;-75
2023/07/15 14:48:07;;;;;;;1.75;1.20;;;;;;;36.56;24.43;99226.38;10455754;28;20037;-76
2023/07/15 14:53:09;;;;;;;1.38;1.15;;;;;;;36.52;25.67;99230.66;10458343;28;20495;-75
2023/07/15 14:58:11;;;;;;;1.05;0.93;;;;;;;36.67;25.22;99211.03;10463535;28;20056;-76
2023/07/15 15:03:12;;;;;;;1.95;1.10;;;;;;;36.82;25.63;99209.47;10463703;28;20049;-75
2023/07/15 15:08:14;;;;;;;3.08;1.20;;;;;;;37.12;25.60;99214.81;10462886;28;20457;-75
2023/07/15 15:13:16;;;;;;;2.03;1.00;;;;;;;37.28;24.45;99204.19;10463820;28;20049;-75
2023/07/15 15:18:18;;;;;;;2.72;1.02;;;;;;;36.87;26.35;99200.53;10462303;28;20080;-75
2023/07/15 15:23:21;;;;;;;1.63;1.00;;;;;;;36.28;25.31;99205.16;10462190;28;20049;-75
2023/07/15 15:28:23;;;;;;;2.53;1.00;;;;;;;36.31;26.20;99193.75;10461797;28;20037;-75
2023/07/15 15:33:25;;;;;;;1.65;1.00;;;;;;;36.20;25.40;99192.66;10461840;28;20048;-75
2023/07/15 15:38:27;;;;;;;1.10;1.00;;;;;;;36.63;26.12;99188.78;10461480;28;20083;-75
2023/07/15 15:43:31;;;;;;;2.60;0.82;;;;;;;37.18;26.10;99188.34;10461328;28;20449;-75
2023/07/15 15:48:32;;;;;;;1.35;1.25;;;;;;;37.43;25.22;99185.34;10461132;28;20037;-74
2023/07/15 15:53:34;;;;;;;1.30;0.90;;;;;;;38.07;23.84;99175.00;10460870;28;20048;-75
2023/07/15 15:58:36;;;;;;;1.63;1.20;;;;;;;38.66;22.44;99182.81;10460901;28;20033;-76
2023/07/15 16:03:38;;;;;;;1.73;1.10;;;;;;;38.38;23.17;99189.25;10460072;28;20065;-75
2023/07/15 16:08:40;;;;;;;1.95;0.98;;;;;;;37.82;23.95;99177.28;10460440;28;20040;-74
2023/07/15 16:13:42;;;;;;;1.80;1.15;;;;;;;37.65;23.86;99176.41;10459214;28;20087;-75
2023/07/15 16:18:44;;;;;;;0.90;0.90;;;;;;;37.61;24.29;99167.84;10459421;28;20121;-74
2023/07/15 16:23:45;;;;;;;1.63;0.90;;;;;;;37.48;23.35;99171.72;10459249;28;20045;-74
2023/07/15 16:28:47;;;;;;;1.85;1.02;;;;;;;36.50;24.89;99158.91;10460108;28;20032;-74
2023/07/15 16:33:49;;;;;;;1.40;1.08;;;;;;;35.66;26.58;99156.22;10459560;28;20110;-75
2023/07/15 16:38:51;;;;;;;1.85;1.30;;;;;;;35.03;27.57;99168.41;10458972;28;20521;-74
2023/07/15 16:43:53;;;;;;;1.48;1.38;;;;;;;34.86;27.72;99153.66;10458997;28;20052;-74
2023/07/15 16:48:55;;;;;;;1.30;1.20;;;;;;;34.74;28.21;99150.00;10457588;28;20063;-74
2023/07/15 16:53:56;;;;;;;1.10;1.02;;;;;;;35.07;26.66;99145.03;10460204;28;20437;-74
2023/07/15 16:58:59;;;;;;;1.20;1.10;;;;;;;35.36;25.92;99150.75;10458707;28;20048;-75
2023/07/15 17:04:01;;;;;;;1.73;1.05;;;;;;;35.39;25.95;99142.91;10459310;28;20094;-75
2023/07/15 17:09:03;;;;;;;1.40;1.00;;;;;;;35.25;25.72;99144.19;10457188;28;20049;-74
2023/07/15 17:14:05;;;;;;;0.88;0.88;;;;;;;35.09;26.26;99139.34;10457623;28;20055;-74
2023/07/15 17:19:06;;;;;;;2.45;1.02;;;;;;;34.86;26.14;99142.75;10457833;28;20383;-73
2023/07/15 17:24:08;;;;;;;3.85;1.15;;;;;;;34.64;26.59;99137.72;10457914;28;20120;-75
2023/07/15 17:29:10;;;;;;;2.55;1.13;;;;;;;34.73;26.26;99132.81;10458634;28;20047;-75
2023/07/15 17:34:12;;;;;;;1.20;1.10;;;;;;;34.47;26.89;99133.91;10457963;28;20098;-75
2023/07/15 17:39:14;;;;;;;1.40;1.13;;;;;;;34.30;26.79;99121.88;10458683;28;20063;-75
2023/07/15 17:44:15;;;;;;;1.23;1.13;;;;;;;33.98;27.39;99118.41;10456899;28;20041;-75
2023/07/15 17:49:17;;;;;;;1.98;1.20;;;;;;;33.62;28.17;99120.75;10457380;28;20037;-74
2023/07/15 17:54:19;;;;;;;1.75;1.23;;;;;;;33.90;27.49;99116.75;10457800;28;20098;-74
2023/07/15 17:59:21;;;;;;;1.70;1.25;;;;;;;33.82;27.67;99106.97;10457115;28;20509;-75
2023/07/15 18:04:23;;;;;;;2.35;1.20;;;;;;;33.68;27.77;99110.84;10456932;28;20052;-75
2023/07/15 18:09:25;;;;;;;1.42;1.15;;;;;;;33.54;28.63;99098.38;10455809;28;20037;-74
2023/07/15 18:14:27;;;;;;;1.77;1.30;;;;;;;33.43;28.47;99102.63;10455048;28;20076;-74
2023/07/15 18:19:29;;;;;;;1.77;1.30;;;;;;;33.06;29.89;99102.38;10456159;28;20048;-73
2023/07/15 18:24:31;;;;;;;1.35;1.25;;;;;;;32.98;29.24;99096.34;10456386;28;20075;-73
2023/07/15 18:29:32;;;;;;;1.67;1.27;;;;;;;32.69;30.06;99094.97;10460088;28;20091;-74
2023/07/15 18:34:34;;;;;;;1.60;1.20;;;;;;;32.47;30.87;99094.41;10464349;28;20045;-74
2023/07/15 18:39:36;;;;;;;1.48;1.38;;;;;;;32.26;31.35;99082.69;10464585;28;20049;-74
2023/07/15 18:44:38;;;;;;;1.33;1.05;;;;;;;32.03;31.72;99088.59;10463858;28;20056;-74
2023/07/15 18:49:40;;;;;;;1.50;1.10;;;;;;;31.78;31.81;99092.94;10464033;28;20059;-73
2023/07/15 18:54:42;;;;;;;1.63;1.38;;;;;;;31.48;32.63;99096.06;10463633;28;20453;-73
2023/07/15 18:59:44;;;;;;;1.40;1.30;;;;;;;31.10;34.04;99101.16;10464424;28;20061;-73
2023/07/15 19:04:48;;;;;;;3.70;1.70;;;;;;;30.92;34.45;99103.59;10462918;28;20475;-73
2023/07/15 19:09:50;;;;;;;3.27;1.60;;;;;;;30.55;35.06;99097.56;10462960;28;20045;-74
2023/07/15 19:14:52;;;;;;;1.45;1.33;;;;;;;30.33;35.61;99099.50;10463056;28;20055;-73
2023/07/15 19:19:53;;;;;;;1.63;1.52;;;;;;;30.12;35.82;99108.50;10462497;28;20052;-74
2023/07/15 19:24:55;;;;;;;1.55;1.45;;;;;;;29.86;36.08;99107.25;10462664;28;20055;-74
2023/07/15 19:29:57;;;;;;;1.55;1.40;;;;;;;29.83;35.81;99106.78;10462521;28;20033;-74
2023/07/15 19:34:58;;;;;;;3.33;1.40;;;;;;;29.66;35.80;99108.94;10462670;28;20044;-74
2023/07/15 19:40:01;;;;;;;1.50;1.40;;;;;;;29.51;36.09;99127.94;10461577;28;20068;-74
2023/07/15 19:45:03;;;;;;;1.70;1.27;;;;;;;29.33;36.21;99141.06;10462197;28;20045;-74
2023/07/15 19:50:05;;;;;;;1.50;1.40;;;;;;;29.17;36.57;99139.41;10460455;28;20049;-74
2023/07/15 19:55:07;;;;;;;1.42;1.30;;;;;;;29.12;36.47;99144.56;10461466;28;20048;-74
2023/07/15 20:00:10;;;;;;;2.50;1.35;;;;;;;29.14;36.99;99146.06;10464438;28;20041;-74
2023/07/15 20:05:12;;;;;;;1.55;1.40;;;;;;;29.05;38.35;99143.66;10478886;28;20441;-74
2023/07/15 20:10:14;;;;;;;1.55;1.40;;;;;;;28.80;39.08;99138.50;10485846;28;20103;-74
2023/07/15 20:15:16;;;;;;;1.77;1.50;;;;;;;28.67;40.46;99138.34;10488265;28;20044;-74
2023/07/15 20:20:17;;;;;;;2.10;1.33;;;;;;;28.36;40.97;99133.94;10460615;28;20040;-74
2023/07/15 20:25:22;;;;;;;1.60;1.50;;;;;;;28.06;40.93;99138.41;10460292;28;20045;-75
2023/07/15 20:30:23;;;;;;;1.70;1.52;;;;;;;28.02;40.59;99138.97;10461106;28;20041;-75
2023/07/15 20:35:25;;;;;;;1.77;1.67;;;;;;;27.98;40.96;99148.44;10460673;28;20094;-74
2023/07/15 20:40:27;;;;;;;2.65;1.52;;;;;;;27.90;41.17;99262.81;10460302;28;20572;-73
2023/07/15 20:45:29;;;;;;;4.50;1.35;;;;;;;28.74;37.79;99339.41;10462971;28;20049;-74
2023/07/15 20:50:31;;;;;;;22.60;2.72;;;;;;;28.40;40.57;99334.44;10458747;28;20041;-74
2023/07/15 20:55:33;;;;;;;11.80;2.05;;;;;;;27.82;42.54;99335.78;10459460;28;20050;-76
2023/07/15 21:00:35;;;;;;;17.08;2.10;;;;;;;27.36;44.29;99360.72;10460731;28;20124;-74
2023/07/15 21:05:37;;;;;;;7.88;1.88;;;;;;;26.89;45.94;99368.69;10459935;28;20049;-74
2023/07/15 21:10:43;;;;;;;9.98;1.73;;;;;;;26.61;47.58;99354.72;10459345;28;20045;-75
2023/07/15 21:15:44;;;;;;;6.70;1.88;;;;;;;26.27;48.98;99360.22;10459571;28;20077;-74
2023/07/15 21:20:55;;;;;;;6.97;1.48;;;;;;;25.89;50.83;99375.91;10458431;28;20045;-76
2023/07/15 21:25:57;;;;;;;2.58;1.10;;;;;;;25.62;52.20;99364.34;10459124;28;20059;-74
2023/07/15 21:31:01;;;;;;;5.20;1.75;;;;;;;25.24;54.06;99362.13;10456950;28;20045;-74
2023/07/15 21:36:06;;;;;;;2.17;1.70;;;;;;;25.39;54.11;99371.28;10456475;28;20097;-73
2023/07/15 21:41:09;;;;;;;3.70;1.60;;;;;;;25.16;55.44;99371.84;10458483;28;20128;-74
2023/07/15 21:46:38;;;;;;;5.53;1.95;;;;;;;25.48;54.39;99369.50;10457456;28;20170;-75
2023/07/15 21:51:40;;;;;;;4.60;1.70;;;;;;;25.48;54.33;99370.34;10457296;28;20044;-75
2023/07/15 21:56:41;;;;;;;2.45;1.92;;;;;;;25.54;54.15;99372.38;10455883;28;20132;-76
2023/07/15 22:01:50;;;;;;;5.00;1.50;;;;;;;25.42;55.03;99371.81;10457233;28;20051;-77
2023/07/15 22:06:51;;;;;;;3.22;1.98;;;;;;;25.19;56.43;99353.69;10457019;28;20037;-77
2023/07/15 22:11:56;;;;;;;3.67;1.80;;;;;;;25.32;55.41;99360.34;10457145;28;20045;-76
2023/07/15 22:17:03;;;;;;;2.60;1.53;;;;;;;25.25;55.52;99331.53;10456128;28;20045;-77
2023/07/15 22:22:06;;;;;;;3.33;1.80;;;;;;;24.92;56.97;99312.47;10540588;28;20127;-77
2023/07/15 22:27:11;;;;;;;4.25;1.88;;;;;;;24.99;57.05;99321.59;10540137;28;20048;-77
2023/07/15 22:32:16;;;;;;;2.47;1.77;;;;;;;25.12;56.78;99313.97;10522861;28;20081;-77
2023/07/15 22:37:18;;;;;;;3.53;1.95;;;;;;;24.90;57.51;99306.41;10539098;28;20036;-76
2023/07/15 22:42:20;;;;;;;3.45;1.90;;;;;;;24.54;58.63;99292.22;10521783;28;20480;-76
2023/07/15 22:47:22;;;;;;;4.80;1.98;;;;;;;24.41;59.21;99288.09;10521170;28;20044;-76
2023/07/15 22:52:39;;;;;;;3.22;1.80;;;;;;;24.41;59.29;99271.13;10533629;28;20052;-76
2023/07/15 22:57:41;;;;;;;3.70;2.10;;;;;;;24.77;57.77;99268.38;10539538;28;20115;-76
2023/07/15 23:02:43;;;;;;;3.25;2.30;;;;;;;24.73;57.92;99253.56;10539178;28;20048;-77
2023/07/15 23:07:45;;;;;;;5.30;1.92;;;;;;;24.54;58.79;99252.75;10520342;28;20394;-77
2023/07/15 23:12:47;;;;;;;4.65;1.70;;;;;;;24.43;58.94;99255.69;10538900;28;20040;-76
2023/07/15 23:17:49;;;;;;;3.97;1.77;;;;;;;24.39;59.76;99257.00;10546086;28;20525;-76
2023/07/15 23:22:51;;;;;;;2.88;1.83;;;;;;;24.26;59.94;99252.03;10545765;28;20500;-76
2023/07/15 23:28:12;;;;;;;2.58;2.00;;;;;;;24.24;59.92;99253.16;10530169;28;20509;-76